sensor_id;sensor_type;location;lat;lon;timestamp;P1;durP1;ratioP1;P2;durP2;ratioP2
37449;SDS011;23309;52.582;13.406;2022-09-21T00:00:49;8.27;;;5.00;;
37449;SDS011;23309;52.582;13.406;2022-09-21T00:03:16;6.70;;;4.17;;
37449;SDS011;23309;52.582;13.406;2022-09-21T00:05:43;5.53;;;3.83;;
37449;SDS011;23309;52.582;13.406;2022-09-21T00:08:09;8.40;;;4.07;;
37449;SDS011;23309;52.582;13.406;2022-09-21T00:10:40;6.17;;;4.50;;
37449;SDS011;23309;52.582;13.406;2022-09-21T00:13:06;6.33;;;3.90;;
37449;SDS011;23309;52.582;13.406;2022-09-21T00:15:32;8.13;;;3.63;;
37449;SDS011;23309;52.582;13.406;2022-09-21T00:17:59;6.67;;;3.80;;
37449;SDS011;23309;52.582;13.406;2022-09-21T00:20:25;4.20;;;3.23;;
37449;SDS011;23309;52.582;13.406;2022-09-21T00:22:52;5.07;;;3.00;;
37449;SDS011;23309;52.582;13.406;2022-09-21T00:25:18;6.90;;;3.07;;
37449;SDS011;23309;52.582;13.406;2022-09-21T00:27:47;5.00;;;3.20;;
37449;SDS011;23309;52.582;13.406;2022-09-21T00:30:14;5.83;;;3.43;;
37449;SDS011;23309;52.582;13.406;2022-09-21T00:32:40;3.40;;;2.63;;
37449;SDS011;23309;52.582;13.406;2022-09-21T00:35:06;3.53;;;2.97;;
37449;SDS011;23309;52.582;13.406;2022-09-21T00:37:34;4.87;;;2.50;;
37449;SDS011;23309;52.582;13.406;2022-09-21T00:40:00;5.87;;;3.40;;
37449;SDS011;23309;52.582;13.406;2022-09-21T00:42:28;3.17;;;2.63;;
37449;SDS011;23309;52.582;13.406;2022-09-21T00:44:59;3.40;;;2.43;;
37449;SDS011;23309;52.582;13.406;2022-09-21T00:47:26;4.23;;;2.57;;
37449;SDS011;23309;52.582;13.406;2022-09-21T00:49:58;3.40;;;2.30;;
37449;SDS011;23309;52.582;13.406;2022-09-21T00:52:28;2.70;;;2.03;;
37449;SDS011;23309;52.582;13.406;2022-09-21T00:54:59;4.43;;;2.73;;
37449;SDS011;23309;52.582;13.406;2022-09-21T00:57:33;3.53;;;2.33;;
37449;SDS011;23309;52.582;13.406;2022-09-21T01:00:04;2.90;;;1.80;;
37449;SDS011;23309;52.582;13.406;2022-09-21T01:02:34;3.23;;;1.97;;
37449;SDS011;23309;52.582;13.406;2022-09-21T01:05:01;4.70;;;2.80;;
37449;SDS011;23309;52.582;13.406;2022-09-21T01:07:29;3.00;;;2.17;;
37449;SDS011;23309;52.582;13.406;2022-09-21T01:09:59;2.90;;;2.07;;
37449;SDS011;23309;52.582;13.406;2022-09-21T01:12:33;5.63;;;2.47;;
37449;SDS011;23309;52.582;13.406;2022-09-21T01:15:22;3.30;;;2.60;;
37449;SDS011;23309;52.582;13.406;2022-09-21T01:18:00;3.07;;;2.40;;
37449;SDS011;23309;52.582;13.406;2022-09-21T01:20:54;2.57;;;2.30;;
37449;SDS011;23309;52.582;13.406;2022-09-21T01:23:58;2.80;;;2.50;;
37449;SDS011;23309;52.582;13.406;2022-09-21T01:27:04;3.30;;;1.83;;
37449;SDS011;23309;52.582;13.406;2022-09-21T01:30:00;1.97;;;1.87;;
37449;SDS011;23309;52.582;13.406;2022-09-21T01:32:31;5.50;;;2.83;;
37449;SDS011;23309;52.582;13.406;2022-09-21T01:35:02;4.13;;;2.50;;
37449;SDS011;23309;52.582;13.406;2022-09-21T01:37:37;2.73;;;2.20;;
37449;SDS011;23309;52.582;13.406;2022-09-21T01:40:08;2.90;;;2.10;;
37449;SDS011;23309;52.582;13.406;2022-09-21T01:42:40;2.63;;;2.37;;
37449;SDS011;23309;52.582;13.406;2022-09-21T01:45:12;2.87;;;2.30;;
37449;SDS011;23309;52.582;13.406;2022-09-21T01:47:42;2.40;;;2.17;;
37449;SDS011;23309;52.582;13.406;2022-09-21T01:50:13;2.83;;;2.30;;
37449;SDS011;23309;52.582;13.406;2022-09-21T01:52:44;2.20;;;2.00;;
37449;SDS011;23309;52.582;13.406;2022-09-21T01:55:15;2.17;;;2.00;;
37449;SDS011;23309;52.582;13.406;2022-09-21T01:57:48;1.90;;;1.80;;
37449;SDS011;23309;52.582;13.406;2022-09-21T02:00:24;3.30;;;2.37;;
37449;SDS011;23309;52.582;13.406;2022-09-21T02:02:52;2.83;;;1.73;;
37449;SDS011;23309;52.582;13.406;2022-09-21T02:05:24;2.47;;;2.27;;
37449;SDS011;23309;52.582;13.406;2022-09-21T02:07:52;2.23;;;2.03;;
37449;SDS011;23309;52.582;13.406;2022-09-21T02:10:21;2.67;;;2.03;;
37449;SDS011;23309;52.582;13.406;2022-09-21T02:12:54;5.57;;;1.90;;
37449;SDS011;23309;52.582;13.406;2022-09-21T02:15:28;4.50;;;2.23;;
37449;SDS011;23309;52.582;13.406;2022-09-21T02:18:03;2.47;;;2.17;;
37449;SDS011;23309;52.582;13.406;2022-09-21T02:20:37;2.17;;;2.00;;
37449;SDS011;23309;52.582;13.406;2022-09-21T02:23:13;2.37;;;1.83;;
37449;SDS011;23309;52.582;13.406;2022-09-21T02:25:48;5.37;;;2.50;;
37449;SDS011;23309;52.582;13.406;2022-09-21T02:28:25;4.10;;;2.43;;
37449;SDS011;23309;52.582;13.406;2022-09-21T02:31:05;3.33;;;2.50;;
37449;SDS011;23309;52.582;13.406;2022-09-21T02:33:41;5.53;;;2.40;;
37449;SDS011;23309;52.582;13.406;2022-09-21T02:36:20;3.73;;;2.27;;
37449;SDS011;23309;52.582;13.406;2022-09-21T02:38:53;5.23;;;2.50;;
37449;SDS011;23309;52.582;13.406;2022-09-21T02:41:27;6.67;;;2.40;;
37449;SDS011;23309;52.582;13.406;2022-09-21T02:44:03;2.80;;;1.90;;
37449;SDS011;23309;52.582;13.406;2022-09-21T02:46:39;4.90;;;2.60;;
37449;SDS011;23309;52.582;13.406;2022-09-21T02:49:11;3.83;;;2.20;;
37449;SDS011;23309;52.582;13.406;2022-09-21T02:51:44;5.17;;;2.93;;
37449;SDS011;23309;52.582;13.406;2022-09-21T02:54:15;4.73;;;2.77;;
37449;SDS011;23309;52.582;13.406;2022-09-21T02:56:47;3.93;;;2.10;;
37449;SDS011;23309;52.582;13.406;2022-09-21T02:59:14;3.10;;;1.87;;
37449;SDS011;23309;52.582;13.406;2022-09-21T03:01:43;4.63;;;2.23;;
37449;SDS011;23309;52.582;13.406;2022-09-21T03:04:09;12.17;;;2.60;;
37449;SDS011;23309;52.582;13.406;2022-09-21T03:06:35;5.87;;;2.80;;
37449;SDS011;23309;52.582;13.406;2022-09-21T03:09:02;3.80;;;2.40;;
37449;SDS011;23309;52.582;13.406;2022-09-21T03:11:28;6.63;;;3.17;;
37449;SDS011;23309;52.582;13.406;2022-09-21T03:13:54;6.40;;;2.90;;
37449;SDS011;23309;52.582;13.406;2022-09-21T03:16:20;8.10;;;3.00;;
37449;SDS011;23309;52.582;13.406;2022-09-21T03:18:49;6.60;;;2.90;;
37449;SDS011;23309;52.582;13.406;2022-09-21T03:21:15;5.80;;;2.93;;
37449;SDS011;23309;52.582;13.406;2022-09-21T03:23:42;4.30;;;3.00;;
37449;SDS011;23309;52.582;13.406;2022-09-21T03:26:08;4.13;;;2.07;;
37449;SDS011;23309;52.582;13.406;2022-09-21T03:28:34;6.87;;;2.40;;
37449;SDS011;23309;52.582;13.406;2022-09-21T03:31:00;2.27;;;1.80;;
37449;SDS011;23309;52.582;13.406;2022-09-21T03:33:26;4.70;;;2.30;;
37449;SDS011;23309;52.582;13.406;2022-09-21T03:35:55;3.20;;;2.10;;
37449;SDS011;23309;52.582;13.406;2022-09-21T03:38:21;3.27;;;1.97;;
37449;SDS011;23309;52.582;13.406;2022-09-21T03:40:48;4.57;;;2.13;;
37449;SDS011;23309;52.582;13.406;2022-09-21T03:43:15;2.13;;;1.73;;
37449;SDS011;23309;52.582;13.406;2022-09-21T03:45:42;2.77;;;1.90;;
37449;SDS011;23309;52.582;13.406;2022-09-21T03:48:09;2.40;;;1.83;;
37449;SDS011;23309;52.582;13.406;2022-09-21T03:50:36;1.87;;;1.67;;
37449;SDS011;23309;52.582;13.406;2022-09-21T03:53:05;6.07;;;1.93;;
37449;SDS011;23309;52.582;13.406;2022-09-21T03:55:32;2.60;;;1.83;;
37449;SDS011;23309;52.582;13.406;2022-09-21T03:57:59;1.70;;;1.60;;
37449;SDS011;23309;52.582;13.406;2022-09-21T04:00:26;4.30;;;1.67;;
37449;SDS011;23309;52.582;13.406;2022-09-21T04:02:52;2.40;;;2.00;;
37449;SDS011;23309;52.582;13.406;2022-09-21T04:05:19;3.00;;;2.00;;
37449;SDS011;23309;52.582;13.406;2022-09-21T04:07:45;2.57;;;2.07;;
37449;SDS011;23309;52.582;13.406;2022-09-21T04:10:14;4.20;;;2.17;;
37449;SDS011;23309;52.582;13.406;2022-09-21T04:12:43;4.83;;;2.10;;
37449;SDS011;23309;52.582;13.406;2022-09-21T04:15:10;2.23;;;2.03;;
37449;SDS011;23309;52.582;13.406;2022-09-21T04:17:38;2.77;;;2.00;;
37449;SDS011;23309;52.582;13.406;2022-09-21T04:20:05;2.07;;;1.90;;
37449;SDS011;23309;52.582;13.406;2022-09-21T04:22:33;2.30;;;2.07;;
37449;SDS011;23309;52.582;13.406;2022-09-21T04:25:00;2.97;;;2.67;;
37449;SDS011;23309;52.582;13.406;2022-09-21T04:27:29;3.90;;;2.20;;
37449;SDS011;23309;52.582;13.406;2022-09-21T04:29:55;2.40;;;2.17;;
37449;SDS011;23309;52.582;13.406;2022-09-21T04:32:21;3.63;;;2.53;;
37449;SDS011;23309;52.582;13.406;2022-09-21T04:34:47;4.80;;;2.60;;
37449;SDS011;23309;52.582;13.406;2022-09-21T04:37:13;4.40;;;3.00;;
37449;SDS011;23309;52.582;13.406;2022-09-21T04:39:39;3.40;;;3.10;;
37449;SDS011;23309;52.582;13.406;2022-09-21T04:42:06;3.83;;;3.10;;
37449;SDS011;23309;52.582;13.406;2022-09-21T04:44:36;3.40;;;2.90;;
37449;SDS011;23309;52.582;13.406;2022-09-21T04:47:05;3.50;;;2.80;;
37449;SDS011;23309;52.582;13.406;2022-09-21T04:49:31;3.73;;;3.00;;
37449;SDS011;23309;52.582;13.406;2022-09-21T04:51:57;4.40;;;2.80;;
37449;SDS011;23309;52.582;13.406;2022-09-21T04:54:24;4.47;;;2.43;;
37449;SDS011;23309;52.582;13.406;2022-09-21T04:56:50;3.17;;;2.53;;
37449;SDS011;23309;52.582;13.406;2022-09-21T04:59:16;3.03;;;2.67;;
37449;SDS011;23309;52.582;13.406;2022-09-21T05:01:45;3.77;;;2.93;;
37449;SDS011;23309;52.582;13.406;2022-09-21T05:04:11;8.40;;;3.13;;
37449;SDS011;23309;52.582;13.406;2022-09-21T05:06:37;9.70;;;2.97;;
37449;SDS011;23309;52.582;13.406;2022-09-21T05:09:03;2.83;;;2.63;;
37449;SDS011;23309;52.582;13.406;2022-09-21T05:11:29;7.43;;;3.10;;
37449;SDS011;23309;52.582;13.406;2022-09-21T05:13:55;6.13;;;2.90;;
37449;SDS011;23309;52.582;13.406;2022-09-21T05:16:22;7.47;;;2.90;;
37449;SDS011;23309;52.582;13.406;2022-09-21T05:18:51;3.60;;;2.70;;
37449;SDS011;23309;52.582;13.406;2022-09-21T05:21:18;4.20;;;3.63;;
37449;SDS011;23309;52.582;13.406;2022-09-21T05:23:44;3.00;;;2.70;;
37449;SDS011;23309;52.582;13.406;2022-09-21T05:26:10;5.10;;;2.97;;
37449;SDS011;23309;52.582;13.406;2022-09-21T05:28:36;3.53;;;2.43;;
37449;SDS011;23309;52.582;13.406;2022-09-21T05:31:10;4.00;;;3.00;;
37449;SDS011;23309;52.582;13.406;2022-09-21T05:33:53;8.17;;;3.13;;
37449;SDS011;23309;52.582;13.406;2022-09-21T05:36:30;3.50;;;2.70;;
37449;SDS011;23309;52.582;13.406;2022-09-21T05:39:08;9.60;;;2.60;;
37449;SDS011;23309;52.582;13.406;2022-09-21T05:41:35;8.00;;;2.43;;
37449;SDS011;23309;52.582;13.406;2022-09-21T05:44:02;5.93;;;2.30;;
37449;SDS011;23309;52.582;13.406;2022-09-21T05:46:32;3.80;;;2.50;;
37449;SDS011;23309;52.582;13.406;2022-09-21T05:49:07;5.87;;;2.23;;
37449;SDS011;23309;52.582;13.406;2022-09-21T05:51:45;7.43;;;2.47;;
37449;SDS011;23309;52.582;13.406;2022-09-21T05:54:24;3.13;;;2.40;;
37449;SDS011;23309;52.582;13.406;2022-09-21T05:57:08;5.60;;;2.60;;
37449;SDS011;23309;52.582;13.406;2022-09-21T05:59:47;5.60;;;2.60;;
37449;SDS011;23309;52.582;13.406;2022-09-21T06:02:25;4.13;;;2.50;;
37449;SDS011;23309;52.582;13.406;2022-09-21T06:05:30;3.60;;;2.20;;
37449;SDS011;23309;52.582;13.406;2022-09-21T06:07:56;4.40;;;2.60;;
37449;SDS011;23309;52.582;13.406;2022-09-21T06:10:23;5.07;;;2.93;;
37449;SDS011;23309;52.582;13.406;2022-09-21T06:12:49;6.37;;;2.90;;
37449;SDS011;23309;52.582;13.406;2022-09-21T06:15:16;6.23;;;3.03;;
37449;SDS011;23309;52.582;13.406;2022-09-21T06:17:42;8.03;;;3.40;;
37449;SDS011;23309;52.582;13.406;2022-09-21T06:20:08;5.53;;;3.33;;
37449;SDS011;23309;52.582;13.406;2022-09-21T06:22:37;5.17;;;3.03;;
37449;SDS011;23309;52.582;13.406;2022-09-21T06:25:04;6.50;;;3.10;;
37449;SDS011;23309;52.582;13.406;2022-09-21T06:27:32;5.03;;;3.20;;
37449;SDS011;23309;52.582;13.406;2022-09-21T06:29:58;4.97;;;3.70;;
37449;SDS011;23309;52.582;13.406;2022-09-21T06:32:24;5.07;;;3.13;;
37449;SDS011;23309;52.582;13.406;2022-09-21T06:34:50;7.13;;;3.60;;
37449;SDS011;23309;52.582;13.406;2022-09-21T06:37:16;8.13;;;3.60;;
37449;SDS011;23309;52.582;13.406;2022-09-21T06:39:45;6.10;;;3.40;;
37449;SDS011;23309;52.582;13.406;2022-09-21T06:42:11;4.50;;;2.93;;
37449;SDS011;23309;52.582;13.406;2022-09-21T06:44:40;6.53;;;3.40;;
37449;SDS011;23309;52.582;13.406;2022-09-21T06:47:06;5.50;;;3.47;;
37449;SDS011;23309;52.582;13.406;2022-09-21T06:49:32;4.93;;;2.83;;
37449;SDS011;23309;52.582;13.406;2022-09-21T06:51:59;10.27;;;3.37;;
37449;SDS011;23309;52.582;13.406;2022-09-21T06:54:25;4.97;;;3.20;;
37449;SDS011;23309;52.582;13.406;2022-09-21T06:56:54;4.37;;;3.13;;
37449;SDS011;23309;52.582;13.406;2022-09-21T06:59:20;9.20;;;3.10;;
37449;SDS011;23309;52.582;13.406;2022-09-21T07:01:46;5.00;;;3.10;;
37449;SDS011;23309;52.582;13.406;2022-09-21T07:04:12;5.80;;;3.60;;
37449;SDS011;23309;52.582;13.406;2022-09-21T07:06:38;6.10;;;3.47;;
37449;SDS011;23309;52.582;13.406;2022-09-21T07:09:04;5.10;;;3.50;;
37449;SDS011;23309;52.582;13.406;2022-09-21T07:11:31;6.20;;;3.70;;
37449;SDS011;23309;52.582;13.406;2022-09-21T07:13:59;8.23;;;4.30;;
37449;SDS011;23309;52.582;13.406;2022-09-21T07:16:26;6.67;;;3.83;;
37449;SDS011;23309;52.582;13.406;2022-09-21T07:18:52;6.47;;;3.63;;
37449;SDS011;23309;52.582;13.406;2022-09-21T07:21:18;9.50;;;4.20;;
37449;SDS011;23309;52.582;13.406;2022-09-21T07:23:44;6.80;;;4.23;;
37449;SDS011;23309;52.582;13.406;2022-09-21T07:26:11;7.07;;;3.93;;
37449;SDS011;23309;52.582;13.406;2022-09-21T07:28:38;8.33;;;3.50;;
37449;SDS011;23309;52.582;13.406;2022-09-21T07:31:08;6.77;;;3.23;;
37449;SDS011;23309;52.582;13.406;2022-09-21T07:33:37;6.70;;;3.60;;
37449;SDS011;23309;52.582;13.406;2022-09-21T07:36:03;10.60;;;3.43;;
37449;SDS011;23309;52.582;13.406;2022-09-21T07:38:31;4.30;;;2.93;;
37449;SDS011;23309;52.582;13.406;2022-09-21T07:41:00;4.00;;;2.97;;
37449;SDS011;23309;52.582;13.406;2022-09-21T07:43:26;4.13;;;2.60;;
37449;SDS011;23309;52.582;13.406;2022-09-21T07:45:53;5.50;;;2.83;;
37449;SDS011;23309;52.582;13.406;2022-09-21T07:48:22;7.33;;;3.23;;
37449;SDS011;23309;52.582;13.406;2022-09-21T07:50:48;4.40;;;3.07;;
37449;SDS011;23309;52.582;13.406;2022-09-21T07:53:14;5.17;;;3.40;;
37449;SDS011;23309;52.582;13.406;2022-09-21T07:55:41;7.40;;;3.50;;
37449;SDS011;23309;52.582;13.406;2022-09-21T07:58:07;8.10;;;3.60;;
37449;SDS011;23309;52.582;13.406;2022-09-21T08:00:34;7.27;;;3.73;;
37449;SDS011;23309;52.582;13.406;2022-09-21T08:03:00;7.90;;;4.33;;
37449;SDS011;23309;52.582;13.406;2022-09-21T08:05:29;8.13;;;4.27;;
37449;SDS011;23309;52.582;13.406;2022-09-21T08:07:56;12.87;;;4.70;;
37449;SDS011;23309;52.582;13.406;2022-09-21T08:10:23;9.70;;;4.13;;
37449;SDS011;23309;52.582;13.406;2022-09-21T08:12:50;12.23;;;4.90;;
37449;SDS011;23309;52.582;13.406;2022-09-21T08:15:16;8.57;;;4.53;;
37449;SDS011;23309;52.582;13.406;2022-09-21T08:17:42;7.27;;;4.60;;
37449;SDS011;23309;52.582;13.406;2022-09-21T08:20:08;9.20;;;5.03;;
37449;SDS011;23309;52.582;13.406;2022-09-21T08:22:37;8.67;;;4.73;;
37449;SDS011;23309;52.582;13.406;2022-09-21T08:25:03;8.20;;;4.73;;
37449;SDS011;23309;52.582;13.406;2022-09-21T08:27:30;9.70;;;4.87;;
37449;SDS011;23309;52.582;13.406;2022-09-21T08:29:56;8.67;;;5.20;;
37449;SDS011;23309;52.582;13.406;2022-09-21T08:32:23;8.73;;;4.43;;
37449;SDS011;23309;52.582;13.406;2022-09-21T08:34:49;8.03;;;4.53;;
37449;SDS011;23309;52.582;13.406;2022-09-21T08:37:15;10.27;;;4.87;;
37449;SDS011;23309;52.582;13.406;2022-09-21T08:39:44;10.87;;;4.20;;
37449;SDS011;23309;52.582;13.406;2022-09-21T08:42:12;9.37;;;5.03;;
37449;SDS011;23309;52.582;13.406;2022-09-21T08:45:05;8.87;;;4.53;;
37449;SDS011;23309;52.582;13.406;2022-09-21T08:47:39;10.27;;;4.60;;
37449;SDS011;23309;52.582;13.406;2022-09-21T08:50:22;6.10;;;4.00;;
37449;SDS011;23309;52.582;13.406;2022-09-21T08:52:59;8.70;;;4.30;;
37449;SDS011;23309;52.582;13.406;2022-09-21T08:55:32;7.23;;;3.73;;
37449;SDS011;23309;52.582;13.406;2022-09-21T08:57:58;6.43;;;3.70;;
37449;SDS011;23309;52.582;13.406;2022-09-21T09:00:25;8.20;;;4.27;;
37449;SDS011;23309;52.582;13.406;2022-09-21T09:03:05;7.10;;;4.10;;
37449;SDS011;23309;52.582;13.406;2022-09-21T09:06:00;9.80;;;4.80;;
37449;SDS011;23309;52.582;13.406;2022-09-21T09:08:35;8.90;;;3.90;;
37449;SDS011;23309;52.582;13.406;2022-09-21T09:14:26;5.17;;;3.40;;
37449;SDS011;23309;52.582;13.406;2022-09-21T09:17:17;9.13;;;3.50;;
37449;SDS011;23309;52.582;13.406;2022-09-21T09:19:57;6.73;;;3.77;;
37449;SDS011;23309;52.582;13.406;2022-09-21T09:22:29;4.63;;;3.00;;
37449;SDS011;23309;52.582;13.406;2022-09-21T09:25:02;4.90;;;3.23;;
37449;SDS011;23309;52.582;13.406;2022-09-21T09:27:42;3.97;;;2.90;;
37449;SDS011;23309;52.582;13.406;2022-09-21T09:30:13;5.90;;;3.23;;
37449;SDS011;23309;52.582;13.406;2022-09-21T09:32:44;6.17;;;2.67;;
37449;SDS011;23309;52.582;13.406;2022-09-21T09:35:20;3.50;;;2.43;;
37449;SDS011;23309;52.582;13.406;2022-09-21T09:37:50;2.73;;;2.33;;
37449;SDS011;23309;52.582;13.406;2022-09-21T09:40:24;5.20;;;2.80;;
37449;SDS011;23309;52.582;13.406;2022-09-21T09:43:14;6.87;;;3.00;;
37449;SDS011;23309;52.582;13.406;2022-09-21T09:45:50;8.10;;;3.13;;
37449;SDS011;23309;52.582;13.406;2022-09-21T09:48:33;6.30;;;2.80;;
37449;SDS011;23309;52.582;13.406;2022-09-21T09:51:12;6.77;;;3.60;;
37449;SDS011;23309;52.582;13.406;2022-09-21T09:53:38;4.17;;;2.47;;
37449;SDS011;23309;52.582;13.406;2022-09-21T09:56:05;4.63;;;2.57;;
37449;SDS011;23309;52.582;13.406;2022-09-21T09:58:38;3.73;;;2.57;;
37449;SDS011;23309;52.582;13.406;2022-09-21T10:04:03;3.93;;;2.63;;
37449;SDS011;23309;52.582;13.406;2022-09-21T10:06:31;5.77;;;2.40;;
37449;SDS011;23309;52.582;13.406;2022-09-21T10:08:57;3.07;;;2.10;;
37449;SDS011;23309;52.582;13.406;2022-09-21T10:11:32;4.27;;;2.47;;
37449;SDS011;23309;52.582;13.406;2022-09-21T10:14:08;2.90;;;2.03;;
37449;SDS011;23309;52.582;13.406;2022-09-21T10:16:39;1.50;;;1.30;;
37449;SDS011;23309;52.582;13.406;2022-09-21T10:19:10;1.80;;;1.50;;
37449;SDS011;23309;52.582;13.406;2022-09-21T10:21:41;1.83;;;1.20;;
37449;SDS011;23309;52.582;13.406;2022-09-21T10:24:13;1.00;;;1.00;;
37449;SDS011;23309;52.582;13.406;2022-09-21T10:26:46;1.50;;;1.40;;
37449;SDS011;23309;52.582;13.406;2022-09-21T10:29:27;1.70;;;1.30;;
37449;SDS011;23309;52.582;13.406;2022-09-21T10:31:57;2.20;;;1.50;;
37449;SDS011;23309;52.582;13.406;2022-09-21T10:34:25;5.63;;;1.40;;
37449;SDS011;23309;52.582;13.406;2022-09-21T10:36:54;5.63;;;1.30;;
37449;SDS011;23309;52.582;13.406;2022-09-21T10:39:23;1.83;;;1.00;;
37449;SDS011;23309;52.582;13.406;2022-09-21T10:41:58;1.27;;;1.10;;
37449;SDS011;23309;52.582;13.406;2022-09-21T10:44:32;2.10;;;1.07;;
37449;SDS011;23309;52.582;13.406;2022-09-21T10:47:12;1.33;;;1.00;;
37449;SDS011;23309;52.582;13.406;2022-09-21T10:49:47;3.80;;;1.20;;
37449;SDS011;23309;52.582;13.406;2022-09-21T10:52:16;3.23;;;1.43;;
37449;SDS011;23309;52.582;13.406;2022-09-21T10:54:47;1.63;;;1.20;;
37449;SDS011;23309;52.582;13.406;2022-09-21T10:57:17;4.43;;;2.20;;
37449;SDS011;23309;52.582;13.406;2022-09-21T10:59:49;1.77;;;1.23;;
37449;SDS011;23309;52.582;13.406;2022-09-21T11:02:26;2.90;;;1.80;;
37449;SDS011;23309;52.582;13.406;2022-09-21T11:05:03;2.30;;;1.27;;
37449;SDS011;23309;52.582;13.406;2022-09-21T11:07:40;2.77;;;1.50;;
37449;SDS011;23309;52.582;13.406;2022-09-21T11:10:16;3.33;;;1.80;;
37449;SDS011;23309;52.582;13.406;2022-09-21T11:12:50;4.93;;;1.40;;
37449;SDS011;23309;52.582;13.406;2022-09-21T11:15:32;3.77;;;1.40;;
37449;SDS011;23309;52.582;13.406;2022-09-21T11:18:11;1.27;;;1.17;;
37449;SDS011;23309;52.582;13.406;2022-09-21T11:20:46;1.23;;;1.10;;
37449;SDS011;23309;52.582;13.406;2022-09-21T11:23:22;2.40;;;1.10;;
37449;SDS011;23309;52.582;13.406;2022-09-21T11:26:05;2.53;;;1.30;;
37449;SDS011;23309;52.582;13.406;2022-09-21T11:28:40;2.00;;;1.30;;
37449;SDS011;23309;52.582;13.406;2022-09-21T11:31:29;4.90;;;1.60;;
37449;SDS011;23309;52.582;13.406;2022-09-21T11:34:28;4.40;;;1.67;;
37449;SDS011;23309;52.582;13.406;2022-09-21T11:37:48;1.20;;;1.10;;
37449;SDS011;23309;52.582;13.406;2022-09-21T11:40:29;4.07;;;1.50;;
37449;SDS011;23309;52.582;13.406;2022-09-21T11:43:18;1.57;;;1.30;;
37449;SDS011;23309;52.582;13.406;2022-09-21T11:45:59;1.90;;;1.40;;
37449;SDS011;23309;52.582;13.406;2022-09-21T11:48:43;2.03;;;1.50;;
37449;SDS011;23309;52.582;13.406;2022-09-21T11:51:26;3.33;;;1.27;;
37449;SDS011;23309;52.582;13.406;2022-09-21T11:54:17;3.43;;;1.23;;
37449;SDS011;23309;52.582;13.406;2022-09-21T11:57:24;1.10;;;1.00;;
37449;SDS011;23309;52.582;13.406;2022-09-21T12:00:07;1.57;;;1.00;;
37449;SDS011;23309;52.582;13.406;2022-09-21T12:02:56;2.43;;;1.00;;
37449;SDS011;23309;52.582;13.406;2022-09-21T12:06:15;3.00;;;1.20;;
37449;SDS011;23309;52.582;13.406;2022-09-21T12:08:58;2.13;;;0.90;;
37449;SDS011;23309;52.582;13.406;2022-09-21T12:11:57;2.40;;;1.20;;
37449;SDS011;23309;52.582;13.406;2022-09-21T12:14:35;2.53;;;1.10;;
37449;SDS011;23309;52.582;13.406;2022-09-21T12:17:10;4.77;;;1.47;;
37449;SDS011;23309;52.582;13.406;2022-09-21T12:19:49;1.20;;;1.10;;
37449;SDS011;23309;52.582;13.406;2022-09-21T12:22:25;1.37;;;1.07;;
37449;SDS011;23309;52.582;13.406;2022-09-21T12:24:56;1.30;;;1.20;;
37449;SDS011;23309;52.582;13.406;2022-09-21T12:27:26;2.00;;;1.13;;
37449;SDS011;23309;52.582;13.406;2022-09-21T12:29:59;2.17;;;1.07;;
37449;SDS011;23309;52.582;13.406;2022-09-21T12:32:35;1.33;;;1.10;;
37449;SDS011;23309;52.582;13.406;2022-09-21T12:35:15;1.43;;;1.27;;
37449;SDS011;23309;52.582;13.406;2022-09-21T12:37:49;1.93;;;1.00;;
37449;SDS011;23309;52.582;13.406;2022-09-21T12:40:24;1.63;;;1.10;;
37449;SDS011;23309;52.582;13.406;2022-09-21T12:43:02;1.10;;;1.00;;
37449;SDS011;23309;52.582;13.406;2022-09-21T12:45:41;1.57;;;1.30;;
37449;SDS011;23309;52.582;13.406;2022-09-21T12:48:25;1.17;;;1.07;;
37449;SDS011;23309;52.582;13.406;2022-09-21T12:51:00;1.10;;;1.00;;
37449;SDS011;23309;52.582;13.406;2022-09-21T12:53:35;2.10;;;1.20;;
37449;SDS011;23309;52.582;13.406;2022-09-21T12:56:03;1.37;;;1.23;;
37449;SDS011;23309;52.582;13.406;2022-09-21T13:01:31;2.13;;;1.30;;
37449;SDS011;23309;52.582;13.406;2022-09-21T13:04:18;1.90;;;1.10;;
37449;SDS011;23309;52.582;13.406;2022-09-21T13:10:06;1.20;;;1.10;;
37449;SDS011;23309;52.582;13.406;2022-09-21T13:12:43;1.40;;;1.30;;
37449;SDS011;23309;52.582;13.406;2022-09-21T13:15:16;1.50;;;1.40;;
37449;SDS011;23309;52.582;13.406;2022-09-21T13:17:55;1.40;;;1.30;;
37449;SDS011;23309;52.582;13.406;2022-09-21T13:20:24;2.00;;;1.70;;
37449;SDS011;23309;52.582;13.406;2022-09-21T13:22:58;4.00;;;1.40;;
37449;SDS011;23309;52.582;13.406;2022-09-21T13:25:26;1.23;;;1.10;;
37449;SDS011;23309;52.582;13.406;2022-09-21T13:27:57;2.10;;;1.30;;
37449;SDS011;23309;52.582;13.406;2022-09-21T13:30:30;1.43;;;1.30;;
37449;SDS011;23309;52.582;13.406;2022-09-21T13:33:01;1.63;;;1.10;;
37449;SDS011;23309;52.582;13.406;2022-09-21T13:35:59;1.40;;;1.13;;
37449;SDS011;23309;52.582;13.406;2022-09-21T13:38:30;1.30;;;1.20;;
37449;SDS011;23309;52.582;13.406;2022-09-21T13:40:58;3.83;;;1.63;;
37449;SDS011;23309;52.582;13.406;2022-09-21T13:49:28;1.30;;;1.07;;
37449;SDS011;23309;52.582;13.406;2022-09-21T13:52:18;1.33;;;1.10;;
37449;SDS011;23309;52.582;13.406;2022-09-21T13:55:01;1.87;;;1.30;;
37449;SDS011;23309;52.582;13.406;2022-09-21T13:57:34;1.00;;;1.00;;
37449;SDS011;23309;52.582;13.406;2022-09-21T14:00:07;1.37;;;1.20;;
37449;SDS011;23309;52.582;13.406;2022-09-21T14:03:16;2.10;;;1.20;;
37449;SDS011;23309;52.582;13.406;2022-09-21T14:05:48;1.20;;;1.10;;
37449;SDS011;23309;52.582;13.406;2022-09-21T14:08:24;1.33;;;1.10;;
37449;SDS011;23309;52.582;13.406;2022-09-21T14:10:58;1.40;;;1.30;;
37449;SDS011;23309;52.582;13.406;2022-09-21T14:13:32;2.10;;;1.10;;
37449;SDS011;23309;52.582;13.406;2022-09-21T14:22:34;1.73;;;1.37;;
37449;SDS011;23309;52.582;13.406;2022-09-21T14:28:12;1.40;;;1.30;;
37449;SDS011;23309;52.582;13.406;2022-09-21T14:30:39;1.10;;;1.00;;
37449;SDS011;23309;52.582;13.406;2022-09-21T14:33:26;1.57;;;1.10;;
37449;SDS011;23309;52.582;13.406;2022-09-21T14:36:07;1.90;;;1.03;;
37449;SDS011;23309;52.582;13.406;2022-09-21T14:38:44;1.13;;;1.03;;
37449;SDS011;23309;52.582;13.406;2022-09-21T14:41:17;1.93;;;1.30;;
37449;SDS011;23309;52.582;13.406;2022-09-21T14:43:48;2.67;;;1.27;;
37449;SDS011;23309;52.582;13.406;2022-09-21T14:46:20;1.27;;;1.10;;
37449;SDS011;23309;52.582;13.406;2022-09-21T14:49:18;1.20;;;1.10;;
37449;SDS011;23309;52.582;13.406;2022-09-21T14:52:04;2.13;;;1.27;;
37449;SDS011;23309;52.582;13.406;2022-09-21T14:54:47;1.77;;;1.17;;
37449;SDS011;23309;52.582;13.406;2022-09-21T15:00:34;1.20;;;1.10;;
37449;SDS011;23309;52.582;13.406;2022-09-21T15:03:07;1.53;;;1.00;;
37449;SDS011;23309;52.582;13.406;2022-09-21T15:06:05;1.63;;;1.53;;
37449;SDS011;23309;52.582;13.406;2022-09-21T15:08:45;2.60;;;1.70;;
37449;SDS011;23309;52.582;13.406;2022-09-21T15:11:23;2.40;;;1.30;;
37449;SDS011;23309;52.582;13.406;2022-09-21T15:14:02;1.60;;;1.50;;
37449;SDS011;23309;52.582;13.406;2022-09-21T15:16:41;1.10;;;1.00;;
37449;SDS011;23309;52.582;13.406;2022-09-21T15:19:14;3.13;;;1.30;;
37449;SDS011;23309;52.582;13.406;2022-09-21T15:21:49;1.50;;;0.90;;
37449;SDS011;23309;52.582;13.406;2022-09-21T15:24:22;2.03;;;1.00;;
37449;SDS011;23309;52.582;13.406;2022-09-21T15:26:52;1.63;;;0.90;;
37449;SDS011;23309;52.582;13.406;2022-09-21T15:29:32;1.77;;;0.90;;
37449;SDS011;23309;52.582;13.406;2022-09-21T15:31:58;1.53;;;1.10;;
37449;SDS011;23309;52.582;13.406;2022-09-21T15:34:26;2.13;;;1.00;;
37449;SDS011;23309;52.582;13.406;2022-09-21T15:36:53;1.13;;;0.90;;